Terminal Aerodrome Forecast
Issued by NWS Northern Indiana

Home | Current Version | Previous Version | Text Only | Print | Product List | Glossary Off
Versions: 1 2 3 4 5 6 7 8 9 10 11 12 13

000
FTUS43 KIWX 262336
TAFFWA
TAF
KFWA 262336Z 2700/2724 23010KT P6SM SCT045 BKN250
     FM270100 20006KT P6SM SCT020
      TEMPO 2710/2714 5SM BR BKN020
     FM271500 22012KT P6SM SCT035 BKN100
     FM271700 21012G18KT P6SM VCSH SCT050 BKN150=

USA.gov is the U.S. government's official web portal to all federal, state and local government web resources and services.